Time;durP1;ratioP1;P1;durP2;ratioP2;P2;SDS_P1;SDS_P2;PMS_P1;PMS_P2;Temp;Humidity;BMP_temperature;BMP_pressure;BME280_temperature;BME280_humidity;BME280_pressure;Samples;Min_cycle;Max_cycle;Signal;HPM_P1;HPM_P2
2022/05/15 00:00:43;;;;;;;10.18;2.58;;;20.10;99.90;;;;;;5037616;28;20515;-85
2022/05/15 00:03:22;;;;;;;2.65;2.03;;;20.10;99.90;;;;;;5021503;28;20036;-85
2022/05/15 00:05:53;;;;;;;3.20;2.03;;;20.10;99.90;;;;;;5011616;28;20026;-84
2022/05/15 00:08:19;;;;;;;2.83;2.15;;;20.10;99.90;;;;;;5038288;28;20621;-84
2022/05/15 00:10:45;;;;;;;2.95;2.05;;;20.10;99.90;;;;;;5044941;28;20029;-84
2022/05/15 00:13:11;;;;;;;2.38;1.92;;;20.00;99.90;;;;;;5040092;28;20032;-84
2022/05/15 00:15:42;;;;;;;2.95;2.00;;;20.00;99.90;;;;;;5042839;28;20063;-82
2022/05/15 00:18:08;;;;;;;2.13;1.95;;;20.00;99.90;;;;;;5035195;28;20101;-84
2022/05/15 00:20:35;;;;;;;3.42;2.08;;;19.90;99.90;;;;;;5037006;28;20104;-82
2022/05/15 00:23:04;;;;;;;3.28;2.15;;;19.90;99.90;;;;;;5040076;28;20111;-82
2022/05/15 00:25:29;;;;;;;2.58;1.98;;;19.90;99.90;;;;;;5042873;28;20551;-84
2022/05/15 00:27:59;;;;;;;2.78;1.80;;;19.80;99.90;;;;;;5020702;28;20031;-83
2022/05/15 00:30:25;;;;;;;2.30;2.10;;;19.80;99.90;;;;;;5043839;28;20582;-83
2022/05/15 00:32:59;;;;;;;3.78;2.17;;;19.80;99.90;;;;;;5041191;28;20512;-82
2022/05/15 00:35:28;;;;;;;3.22;1.90;;;19.80;99.90;;;;;;5043312;28;20068;-83
2022/05/15 00:37:57;;;;;;;3.20;2.00;;;19.80;99.90;;;;;;5038990;28;20027;-84
2022/05/15 00:40:23;;;;;;;2.65;1.75;;;19.70;99.90;;;;;;5037874;28;20037;-84
2022/05/15 00:42:49;;;;;;;3.72;2.28;;;19.80;99.90;;;;;;5036394;28;20029;-84
2022/05/15 00:45:22;;;;;;;2.40;1.80;;;19.80;99.90;;;;;;5015806;28;20052;-84
2022/05/15 00:47:50;;;;;;;;;;;19.80;99.90;;;;;;5036378;28;20108;-83
2022/05/15 00:50:23;;;;;;;2.33;1.77;;;19.70;99.90;;;;;;5043114;28;19913;-83
2022/05/15 00:52:53;;;;;;;2.42;1.98;;;19.70;99.90;;;;;;5039992;28;20024;-84
2022/05/15 00:55:27;;;;;;;2.63;1.75;;;19.70;99.90;;;;;;5037018;28;20090;-84
2022/05/15 00:58:05;;;;;;;2.10;1.70;;;19.70;99.90;;;;;;5040297;28;20025;-83
2022/05/15 01:00:33;;;;;;;1.98;1.77;;;19.70;99.90;;;;;;5042568;28;20025;-85
2022/05/15 01:03:05;;;;;;;3.15;2.00;;;19.70;99.90;;;;;;5037556;28;20132;-84
2022/05/15 01:05:46;;;;;;;5.05;1.63;;;19.80;99.90;;;;;;5042458;28;20025;-82
2022/05/15 01:08:22;;;;;;;5.53;1.73;;;19.80;99.90;;;;;;5037529;28;20030;-83
2022/05/15 01:11:01;;;;;;;3.13;1.95;;;19.80;99.90;;;;;;5037462;28;20516;-82
2022/05/15 01:13:30;;;;;;;2.53;1.65;;;19.80;99.90;;;;;;5039034;28;20113;-84
2022/05/15 01:15:56;;;;;;;4.05;1.83;;;19.80;99.90;;;;;;5038569;28;20038;-85
2022/05/15 01:18:24;;;;;;;5.13;2.08;;;19.80;99.90;;;;;;5039115;28;20021;-85
2022/05/15 01:21:01;;;;;;;4.03;2.13;;;19.80;99.90;;;;;;5043163;28;20040;-84
2022/05/15 01:23:29;;;;;;;2.00;1.77;;;19.80;99.90;;;;;;5038990;28;20036;-84
2022/05/15 01:25:58;;;;;;;8.63;2.25;;;19.80;99.90;;;;;;5038480;28;20708;-83
2022/05/15 01:28:27;;;;;;;2.92;1.90;;;19.80;99.90;;;;;;5041025;28;20116;-84
2022/05/15 01:30:57;;;;;;;2.13;1.85;;;19.80;99.90;;;;;;5042368;28;20029;-84
2022/05/15 01:33:23;;;;;;;2.80;2.10;;;19.80;99.90;;;;;;5040840;28;20029;-85
2022/05/15 01:35:55;;;;;;;2.80;1.80;;;19.80;99.90;;;;;;5037201;28;20490;-85
2022/05/15 01:38:20;;;;;;;2.43;2.23;;;19.80;99.90;;;;;;5040086;28;20036;-84
2022/05/15 01:40:49;;;;;;;1.90;1.73;;;19.80;99.90;;;;;;5042035;28;20277;-84
2022/05/15 01:43:16;;;;;;;2.42;1.75;;;19.80;99.90;;;;;;5039115;28;20032;-84
2022/05/15 01:45:42;;;;;;;4.35;2.15;;;19.70;99.90;;;;;;5036640;28;20052;-85
2022/05/15 01:48:08;;;;;;;4.00;1.98;;;19.70;99.90;;;;;;5035904;28;20037;-85
2022/05/15 01:50:37;;;;;;;3.40;1.63;;;19.70;99.90;;;;;;5018190;28;20377;-83
2022/05/15 01:53:08;;;;;;;2.33;2.05;;;19.70;99.90;;;;;;5040865;28;20025;-83
2022/05/15 01:55:34;;;;;;;4.38;2.00;;;19.70;99.90;;;;;;5043729;28;20495;-85
2022/05/15 01:58:00;;;;;;;2.65;1.85;;;19.70;99.90;;;;;;5041313;28;20140;-84
2022/05/15 02:00:27;;;;;;;2.13;1.77;;;19.60;99.90;;;;;;5046518;28;20021;-85
2022/05/15 02:02:53;;;;;;;2.13;1.92;;;19.60;99.90;;;;;;5042851;28;20041;-84
2022/05/15 02:05:20;;;;;;;2.50;1.77;;;19.60;99.90;;;;;;5046206;28;20137;-85
2022/05/15 02:07:52;;;;;;;4.25;2.03;;;19.50;99.90;;;;;;5042741;28;20021;-83
2022/05/15 02:10:19;;;;;;;3.42;2.10;;;19.50;99.90;;;;;;5022755;28;20035;-82
2022/05/15 02:12:45;;;;;;;3.58;2.33;;;19.40;99.90;;;;;;5041827;28;20037;-84
2022/05/15 02:15:12;;;;;;;3.55;2.05;;;19.30;99.90;;;;;;5046041;28;20033;-83
2022/05/15 02:17:40;;;;;;;4.13;1.92;;;19.20;99.90;;;;;;5042764;28;20661;-82
2022/05/15 02:20:11;;;;;;;2.78;2.00;;;19.10;99.90;;;;;;5036801;28;20033;-83
2022/05/15 02:22:38;;;;;;;2.10;1.90;;;19.00;99.90;;;;;;5033227;28;20057;-83
2022/05/15 02:25:09;;;;;;;4.50;1.95;;;18.90;99.90;;;;;;5044670;28;20495;-83
2022/05/15 02:27:35;;;;;;;5.05;2.15;;;18.90;99.90;;;;;;5041125;28;20485;-83
2022/05/15 02:30:06;;;;;;;3.65;2.00;;;18.80;99.90;;;;;;5047259;28;20032;-84
2022/05/15 02:32:31;;;;;;;2.25;1.95;;;18.70;99.90;;;;;;5045343;28;20048;-83
2022/05/15 02:34:57;;;;;;;2.17;1.92;;;18.60;99.90;;;;;;5034675;28;20076;-85
2022/05/15 02:37:47;;;;;;;5.57;2.20;;;18.50;99.90;;;;;;5041791;28;20044;-83
2022/05/15 02:40:14;;;;;;;2.55;1.77;;;18.50;99.90;;;;;;5049922;28;20021;-83
2022/05/15 02:42:40;;;;;;;3.63;2.05;;;18.40;99.90;;;;;;5022900;28;20029;-83
2022/05/15 02:45:06;;;;;;;2.17;1.98;;;18.40;99.90;;;;;;5044824;28;20056;-84
2022/05/15 02:47:33;;;;;;;2.53;1.98;;;18.40;99.90;;;;;;5040042;28;20108;-84
2022/05/15 02:52:46;;;;;;;3.60;2.40;;;18.40;99.90;;;;;;5038403;28;20083;-84
2022/05/15 02:55:12;;;;;;;2.05;1.95;;;18.40;99.90;;;;;;5044770;28;20045;-84
2022/05/15 02:57:40;;;;;;;6.57;2.50;;;18.30;99.90;;;;;;5040398;28;20580;-84
2022/05/15 03:00:09;;;;;;;2.30;1.92;;;18.40;99.90;;;;;;5047255;28;20033;-84
2022/05/15 03:02:39;;;;;;;2.95;2.05;;;18.40;99.90;;;;;;5040306;28;20021;-84
2022/05/15 03:05:07;;;;;;;4.65;2.33;;;18.50;99.90;;;;;;5044772;28;21148;-84
2022/05/15 03:07:33;;;;;;;2.10;1.90;;;18.50;99.90;;;;;;5039567;28;20084;-84
2022/05/15 03:09:59;;;;;;;5.53;2.30;;;18.60;99.90;;;;;;5038843;28;20037;-84
2022/05/15 03:12:25;;;;;;;5.00;2.35;;;18.60;99.90;;;;;;5044494;28;20040;-85
2022/05/15 03:14:51;;;;;;;2.92;1.77;;;18.60;99.90;;;;;;5043319;28;20060;-84
2022/05/15 03:17:17;;;;;;;4.90;2.25;;;18.60;99.90;;;;;;5040906;28;20033;-84
2022/05/15 03:19:44;;;;;;;2.90;1.90;;;18.50;99.90;;;;;;5030697;28;20114;-84
2022/05/15 03:22:10;;;;;;;4.63;2.00;;;18.50;99.90;;;;;;5024084;28;20119;-84
2022/05/15 03:24:36;;;;;;;2.42;2.10;;;18.40;99.90;;;;;;5040778;28;20087;-83
2022/05/15 03:27:02;;;;;;;5.25;2.17;;;18.30;99.90;;;;;;5042193;28;20533;-84
2022/05/15 03:29:28;;;;;;;3.33;2.17;;;18.20;99.90;;;;;;5044693;28;20063;-84
2022/05/15 03:31:54;;;;;;;3.63;2.15;;;18.20;99.90;;;;;;5023914;28;20297;-84
2022/05/15 03:34:20;;;;;;;4.43;2.10;;;18.10;99.90;;;;;;5026648;28;20103;-84
2022/05/15 03:36:51;;;;;;;5.15;2.00;;;18.20;99.90;;;;;;5041301;28;20025;-84
2022/05/15 03:39:19;;;;;;;5.47;2.40;;;18.20;99.90;;;;;;5046206;28;20514;-85
2022/05/15 03:41:46;;;;;;;2.55;2.15;;;18.20;99.90;;;;;;5027918;28;20064;-84
2022/05/15 03:44:12;;;;;;;2.35;2.05;;;18.30;99.90;;;;;;5033291;28;20049;-85
2022/05/15 03:46:39;;;;;;;3.45;2.50;;;18.40;99.90;;;;;;5020002;28;20496;-85
2022/05/15 03:49:05;;;;;;;8.43;2.30;;;18.40;99.90;;;;;;5018195;28;20458;-84
2022/05/15 03:51:31;;;;;;;3.42;2.15;;;18.40;99.90;;;;;;5041126;28;20075;-84
2022/05/15 03:53:57;;;;;;;4.75;3.15;;;18.50;99.90;;;;;;5034628;28;20066;-85
2022/05/15 03:59:10;;;;;;;2.50;2.30;;;18.50;99.90;;;;;;5044411;28;20028;-85
2022/05/15 04:01:35;;;;;;;3.83;2.25;;;18.60;99.90;;;;;;5041249;28;20074;-85
2022/05/15 04:04:02;;;;;;;3.70;2.30;;;18.60;99.90;;;;;;5042233;28;20028;-85
2022/05/15 04:06:28;;;;;;;4.25;2.60;;;18.60;99.90;;;;;;5039108;28;20028;-85
2022/05/15 04:08:57;;;;;;;4.15;2.28;;;18.60;99.90;;;;;;5041041;28;20030;-84
2022/05/15 04:11:22;;;;;;;5.72;2.33;;;18.70;99.90;;;;;;5041242;28;20087;-85
2022/05/15 04:13:48;;;;;;;6.28;2.38;;;18.70;99.90;;;;;;5037003;28;20026;-84
2022/05/15 04:16:17;;;;;;;4.13;2.10;;;18.80;99.90;;;;;;5022302;28;20047;-84
2022/05/15 04:18:43;;;;;;;2.83;2.40;;;18.90;99.90;;;;;;5020479;28;20427;-84
2022/05/15 04:21:10;;;;;;;8.88;2.97;;;18.90;99.90;;;;;;5016802;28;20033;-84
2022/05/15 04:23:45;;;;;;;5.18;2.95;;;18.90;99.90;;;;;;5041764;28;20036;-86
2022/05/15 04:26:11;;;;;;;7.97;2.97;;;18.90;99.90;;;;;;5018968;28;20095;-83
2022/05/15 04:28:37;;;;;;;5.28;2.78;;;19.00;99.90;;;;;;5037872;28;20034;-84
2022/05/15 04:31:03;;;;;;;4.93;2.53;;;19.00;99.90;;;;;;5036342;28;20567;-84
2022/05/15 04:33:29;;;;;;;9.93;2.83;;;19.00;99.90;;;;;;5040551;28;20507;-84
2022/05/15 04:35:55;;;;;;;3.40;2.80;;;19.10;99.90;;;;;;5042489;28;20044;-84
2022/05/15 04:38:21;;;;;;;4.15;2.47;;;19.10;99.90;;;;;;5040725;28;20120;-84
2022/05/15 04:40:47;;;;;;;10.50;2.80;;;19.10;99.90;;;;;;5044348;28;20086;-84
2022/05/15 04:43:13;;;;;;;4.72;2.78;;;19.20;99.90;;;;;;5039903;28;20025;-84
2022/05/15 04:45:38;;;;;;;3.30;2.88;;;19.20;99.90;;;;;;5024644;28;20028;-84
2022/05/15 04:48:04;;;;;;;3.08;2.53;;;19.30;99.90;;;;;;5021109;28;20128;-84
2022/05/15 04:50:30;;;;;;;6.32;2.88;;;19.30;99.90;;;;;;5037568;28;20042;-84
2022/05/15 04:52:56;;;;;;;2.95;2.60;;;19.40;99.90;;;;;;5040569;28;20032;-82
2022/05/15 04:55:22;;;;;;;5.60;3.08;;;19.50;99.90;;;;;;5042901;28;20487;-84
2022/05/15 04:57:47;;;;;;;2.50;2.30;;;19.50;99.90;;;;;;5039226;28;20053;-84
2022/05/15 05:00:19;;;;;;;4.15;2.35;;;19.60;99.90;;;;;;5037617;28;20480;-84
2022/05/15 05:02:45;;;;;;;3.42;2.72;;;19.60;99.90;;;;;;5038117;28;20025;-85
2022/05/15 05:05:14;;;;;;;3.72;2.70;;;19.60;99.90;;;;;;5024590;28;20100;-83
2022/05/15 05:07:40;;;;;;;4.13;2.92;;;19.70;99.90;;;;;;5039833;28;20495;-84
2022/05/15 05:10:08;;;;;;;2.92;2.65;;;19.70;99.90;;;;;;5016323;28;20029;-84
2022/05/15 05:12:34;;;;;;;3.65;2.63;;;19.80;99.90;;;;;;5038451;28;20140;-84
2022/05/15 05:14:59;;;;;;;4.60;2.58;;;19.80;99.90;;;;;;5043646;28;20187;-84
2022/05/15 05:17:26;;;;;;;5.35;2.85;;;19.90;99.90;;;;;;5039624;28;20026;-84
2022/05/15 05:19:51;;;;;;;2.90;2.60;;;20.00;99.90;;;;;;5043361;28;20383;-85
2022/05/15 05:22:20;;;;;;;5.47;3.00;;;20.00;99.90;;;;;;5040391;28;20037;-84
2022/05/15 05:24:47;;;;;;;4.03;2.70;;;20.10;99.90;;;;;;5019475;28;20068;-83
2022/05/15 05:27:15;;;;;;;6.13;2.75;;;20.10;99.90;;;;;;5039298;28;20056;-83
2022/05/15 05:29:44;;;;;;;3.00;2.70;;;20.20;99.90;;;;;;5044162;28;20032;-83
2022/05/15 05:32:17;;;;;;;3.08;2.53;;;20.30;99.90;;;;;;5040917;28;20025;-83
2022/05/15 05:34:43;;;;;;;4.88;2.58;;;20.30;99.90;;;;;;5039757;28;20124;-85
2022/05/15 05:37:09;;;;;;;2.88;2.58;;;20.40;99.90;;;;;;5044138;28;20021;-83
2022/05/15 05:39:35;;;;;;;3.40;2.63;;;20.40;99.90;;;;;;5047304;28;20287;-83
2022/05/15 05:42:04;;;;;;;5.85;2.90;;;20.50;99.90;;;;;;5044405;28;20018;-83
2022/05/15 05:44:48;;;;;;;5.95;2.85;;;20.60;99.90;;;;;;5047343;28;20025;-83
2022/05/15 05:47:14;;;;;;;4.38;2.42;;;20.60;99.90;;;;;;5042663;28;20507;-83
2022/05/15 05:49:51;;;;;;;3.83;2.70;;;20.70;99.90;;;;;;5046426;28;20045;-85
2022/05/15 05:52:20;;;;;;;3.75;3.03;;;20.80;99.90;;;;;;5024528;28;20025;-84
2022/05/15 05:54:50;;;;;;;4.35;2.22;;;20.90;99.90;;;;;;5022493;28;20086;-84
2022/05/15 05:57:16;;;;;;;3.20;2.65;;;21.00;99.90;;;;;;5024687;28;20033;-84
2022/05/15 05:59:43;;;;;;;4.68;3.08;;;21.10;99.90;;;;;;5039103;28;20429;-82
2022/05/15 06:02:11;;;;;;;4.60;3.05;;;21.20;99.90;;;;;;5043261;28;20089;-84
2022/05/15 06:04:41;;;;;;;2.63;2.42;;;21.20;99.90;;;;;;5040446;28;20758;-83
2022/05/15 06:07:10;;;;;;;4.95;2.50;;;21.30;99.90;;;;;;5043040;28;20025;-83
2022/05/15 06:09:38;;;;;;;3.63;3.00;;;21.40;99.90;;;;;;5022429;28;20025;-83
2022/05/15 06:12:27;;;;;;;3.45;2.90;;;21.50;99.90;;;;;;5026095;28;20581;-85
2022/05/15 06:14:53;;;;;;;8.02;2.85;;;21.60;99.90;;;;;;5046300;28;20109;-83
2022/05/15 06:17:24;;;;;;;2.70;2.50;;;21.70;99.90;;;;;;5021167;28;20036;-83
2022/05/15 06:19:51;;;;;;;6.72;2.80;;;21.80;99.90;;;;;;5025521;28;20109;-85
2022/05/15 06:22:17;;;;;;;2.70;2.50;;;21.80;99.90;;;;;;5024026;28;20076;-85
2022/05/15 06:24:44;;;;;;;4.15;2.60;;;21.90;99.90;;;;;;5046299;28;20033;-84
2022/05/15 06:27:10;;;;;;;5.53;2.58;;;22.00;99.90;;;;;;5025562;28;20727;-87
2022/05/15 06:29:38;;;;;;;5.07;2.72;;;22.10;99.90;;;;;;5022130;28;20025;-85
2022/05/15 06:32:04;;;;;;;3.72;2.53;;;22.20;99.90;;;;;;5024420;28;20091;-84
2022/05/15 06:34:33;;;;;;;3.75;2.55;;;22.20;99.90;;;;;;5028306;28;20090;-84
2022/05/15 06:36:59;;;;;;;6.75;2.70;;;22.40;99.90;;;;;;5042362;28;20032;-82
2022/05/15 06:39:25;;;;;;;4.03;2.50;;;22.40;99.90;;;;;;5045044;28;20047;-84
2022/05/15 06:41:59;;;;;;;5.57;2.70;;;22.50;99.90;;;;;;5041831;28;20029;-82
2022/05/15 06:44:27;;;;;;;4.65;2.53;;;22.60;99.90;;;;;;5045105;28;20028;-82
2022/05/15 06:46:52;;;;;;;3.22;2.80;;;22.60;99.90;;;;;;5041947;28;20498;-84
2022/05/15 06:49:18;;;;;;;5.53;2.53;;;22.70;99.90;;;;;;5039118;28;20045;-83
2022/05/15 06:51:54;;;;;;;6.35;2.47;;;22.80;99.90;;;;;;5042737;28;20444;-84
2022/05/15 06:54:37;;;;;;;3.88;2.60;;;22.70;99.90;;;;;;5037312;28;20036;-82
2022/05/15 06:59:48;;;;;;;6.07;2.42;;;23.00;99.90;;;;;;5039626;28;20028;-85
2022/05/15 07:02:14;;;;;;;3.00;2.70;;;23.10;99.90;;;;;;5040065;28;20391;-83
2022/05/15 07:04:39;;;;;;;3.58;2.70;;;23.10;99.90;;;;;;5045377;28;20387;-83
2022/05/15 07:07:08;;;;;;;7.22;2.60;;;23.20;99.90;;;;;;5041567;28;20048;-83
2022/05/15 07:09:34;;;;;;;10.85;2.63;;;23.30;99.90;;;;;;5045817;28;20033;-83
2022/05/15 07:12:00;;;;;;;5.60;2.70;;;23.40;99.90;;;;;;5023390;28;20022;-82
2022/05/15 07:14:26;;;;;;;5.15;2.70;;;23.50;99.90;;;;;;5037254;28;20119;-82
2022/05/15 07:16:51;;;;;;;5.65;2.47;;;23.50;99.90;;;;;;5025040;28;20116;-82
2022/05/15 07:19:17;;;;;;;4.43;2.80;;;23.60;99.90;;;;;;5019939;28;20041;-83
2022/05/15 07:21:43;;;;;;;5.30;2.67;;;23.60;99.90;;;;;;5035392;28;20040;-83
2022/05/15 07:24:09;;;;;;;2.60;2.40;;;23.70;99.90;;;;;;5027981;28;20036;-83
2022/05/15 07:26:39;;;;;;;2.47;2.20;;;23.90;99.90;;;;;;5041452;28;20029;-83
2022/05/15 07:29:05;;;;;;;3.53;2.00;;;23.90;99.90;;;;;;5027470;28;20116;-83
2022/05/15 07:31:31;;;;;;;3.85;2.25;;;23.90;99.90;;;;;;5040267;28;20025;-83
2022/05/15 07:33:57;;;;;;;6.90;2.58;;;24.00;99.90;;;;;;5044383;28;20032;-82
2022/05/15 07:36:22;;;;;;;2.55;2.20;;;24.10;99.90;;;;;;5042277;28;20071;-83
2022/05/15 07:38:48;;;;;;;3.67;2.05;;;24.20;99.90;;;;;;5040425;28;20025;-83
2022/05/15 07:41:14;;;;;;;8.18;2.05;;;24.20;99.90;;;;;;5041257;28;20519;-83
2022/05/15 07:43:40;;;;;;;4.45;2.28;;;24.40;99.90;;;;;;5025963;28;20078;-82
2022/05/15 07:46:06;;;;;;;2.97;2.30;;;24.50;99.90;;;;;;5041862;28;20052;-84
2022/05/15 07:48:32;;;;;;;2.40;2.20;;;24.60;99.90;;;;;;5042630;28;20041;-84
2022/05/15 07:50:58;;;;;;;4.13;2.28;;;24.60;99.90;;;;;;5043728;28;20079;-84
2022/05/15 07:53:25;;;;;;;2.40;2.20;;;24.70;99.90;;;;;;5031070;28;20150;-83
2022/05/15 07:55:53;;;;;;;3.70;2.10;;;24.80;99.90;;;;;;5038566;28;20033;-82
2022/05/15 07:58:18;;;;;;;2.47;2.17;;;24.80;99.90;;;;;;5024078;28;20480;-84
2022/05/15 08:00:44;;;;;;;5.97;2.30;;;24.90;99.90;;;;;;5026668;28;20068;-84
2022/05/15 08:03:11;;;;;;;3.60;2.20;;;25.10;99.90;;;;;;5024245;28;20569;-83
2022/05/15 08:08:23;;;;;;;4.22;2.10;;;25.20;99.90;;;;;;5039901;28;20079;-85
2022/05/15 08:10:50;;;;;;;3.13;2.03;;;25.20;99.90;;;;;;5042202;28;20021;-84
2022/05/15 08:13:19;;;;;;;4.00;2.55;;;25.20;99.90;;;;;;5039561;28;20431;-84
2022/05/15 08:15:45;;;;;;;6.25;2.45;;;25.20;99.90;;;;;;5037799;28;20444;-83
2022/05/15 08:23:53;;;;;;;4.35;2.38;;;24.80;99.90;;;;;;5048073;28;20044;-84
2022/05/15 08:26:19;;;;;;;4.60;2.83;;;24.90;99.90;;;;;;5044034;28;20025;-84
2022/05/15 08:28:49;;;;;;;6.85;2.80;;;24.90;99.90;;;;;;5038796;28;20459;-84
2022/05/15 08:31:15;;;;;;;4.35;2.60;;;24.80;99.90;;;;;;5047055;28;20033;-85
2022/05/15 08:33:44;;;;;;;24.27;3.90;;;24.70;99.90;;;;;;5051580;28;20028;-84
2022/05/15 08:36:10;;;;;;;13.15;3.45;;;24.80;99.90;;;;;;5030310;28;20037;-84
2022/05/15 08:38:37;;;;;;;6.75;3.50;;;24.60;99.90;;;;;;5039685;28;20025;-84
2022/05/15 08:41:11;;;;;;;3.83;2.75;;;24.10;99.90;;;;;;5040630;28;20097;-84
2022/05/15 08:43:41;;;;;;;5.50;3.08;;;23.80;99.90;;;;;;5038793;28;20060;-85
2022/05/15 08:46:23;;;;;;;5.03;3.05;;;23.80;99.90;;;;;;5031899;28;20037;-85
2022/05/15 08:48:50;;;;;;;8.57;2.87;;;23.60;99.90;;;;;;5038696;28;20071;-84
2022/05/15 08:51:16;;;;;;;5.03;2.92;;;23.60;99.90;;;;;;5037672;28;20033;-84
2022/05/15 08:53:51;;;;;;;3.97;2.75;;;23.60;99.90;;;;;;5017656;28;20683;-84
2022/05/15 08:56:17;;;;;;;8.63;3.10;;;23.60;99.90;;;;;;5036818;28;21471;-85
2022/05/15 08:58:50;;;;;;;4.82;3.22;;;23.60;99.90;;;;;;5035485;28;20067;-85
2022/05/15 09:01:28;;;;;;;5.20;3.28;;;23.80;99.90;;;;;;5036865;28;20112;-84
2022/05/15 09:03:55;;;;;;;3.88;3.00;;;23.80;99.90;;;;;;5037102;28;20021;-85
2022/05/15 09:06:36;;;;;;;5.45;3.20;;;23.80;99.90;;;;;;5041761;28;20017;-82
2022/05/15 09:09:10;;;;;;;5.60;3.22;;;23.80;99.90;;;;;;5046400;28;20156;-85
2022/05/15 09:11:56;;;;;;;11.45;3.80;;;23.90;99.90;;;;;;5046134;28;20379;-84
2022/05/15 09:14:59;;;;;;;9.88;3.35;;;24.00;99.90;;;;;;5048499;28;20036;-84
2022/05/15 09:17:43;;;;;;;6.03;3.38;;;24.00;99.90;;;;;;5040826;28;20517;-84
2022/05/15 09:20:17;;;;;;;11.20;3.20;;;24.10;99.90;;;;;;5036582;28;20021;-85
2022/05/15 09:22:47;;;;;;;6.32;3.25;;;24.00;99.90;;;;;;5039726;28;20033;-85
2022/05/15 09:25:20;;;;;;;6.40;3.33;;;24.00;99.90;;;;;;5047428;28;20017;-86
2022/05/15 09:28:03;;;;;;;;;;;24.00;99.90;;;;;;5028343;28;20025;-84
2022/05/15 09:30:48;;;;;;;6.13;3.35;;;23.90;99.90;;;;;;5041489;28;19909;-84
2022/05/15 09:33:31;;;;;;;35.05;26.85;;;23.90;99.90;;;;;;5040950;28;20510;-85
2022/05/15 09:36:24;;;;;;;5.20;3.20;;;24.10;99.90;;;;;;5045849;28;20040;-84
2022/05/15 09:39:09;;;;;;;5.60;3.00;;;24.20;99.90;;;;;;5041664;28;20249;-84
2022/05/15 09:44:28;;;;;;;3.20;2.90;;;24.50;99.90;;;;;;5039194;28;20040;-86
2022/05/15 09:47:18;;;;;;;9.48;3.28;;;24.50;99.90;;;;;;5040210;28;20034;-84
2022/05/15 09:49:45;;;;;;;6.70;3.20;;;24.50;99.90;;;;;;5039554;28;20048;-84
2022/05/15 09:52:15;;;;;;;5.35;3.28;;;24.20;99.90;;;;;;5045777;28;20036;-84
2022/05/15 09:54:45;;;;;;;4.75;2.65;;;24.20;99.90;;;;;;5023608;28;20029;-83
2022/05/15 09:57:27;;;;;;;4.68;3.33;;;24.30;99.90;;;;;;5026105;28;20029;-85
2022/05/15 09:59:59;;;;;;;4.85;3.28;;;24.40;99.90;;;;;;5023618;28;20479;-83
2022/05/15 10:02:47;;;;;;;6.88;3.13;;;24.40;99.90;;;;;;5042519;28;20518;-83
2022/05/15 10:05:18;;;;;;;5.97;2.83;;;24.50;99.90;;;;;;5038575;28;20496;-83
2022/05/15 10:08:04;;;;;;;3.58;2.97;;;24.50;99.90;;;;;;5042330;28;20100;-82
2022/05/15 10:10:35;;;;;;;4.38;2.97;;;24.50;99.90;;;;;;5046244;28;20052;-83
2022/05/15 10:13:09;;;;;;;4.72;3.25;;;24.60;99.90;;;;;;5024919;28;20044;-83
2022/05/15 10:15:48;;;;;;;5.20;3.50;;;24.70;99.90;;;;;;5044657;28;20091;-83
2022/05/15 10:18:18;;;;;;;5.60;3.45;;;24.80;99.90;;;;;;5041417;28;20025;-82
2022/05/15 10:20:47;;;;;;;5.72;3.28;;;24.70;99.90;;;;;;5044640;28;20090;-83
2022/05/15 10:23:17;;;;;;;5.20;3.60;;;24.70;99.90;;;;;;5043308;28;20067;-86
2022/05/15 10:25:49;;;;;;;6.90;5.20;;;24.90;99.90;;;;;;5016105;28;20128;-84
2022/05/15 10:28:36;;;;;;;3.33;3.00;;;24.90;99.90;;;;;;5041715;28;20052;-84
2022/05/15 10:31:04;;;;;;;4.40;3.15;;;24.80;99.90;;;;;;5023231;28;20044;-84
2022/05/15 10:33:40;;;;;;;3.80;2.92;;;24.70;99.90;;;;;;5043153;28;20021;-84
2022/05/15 10:36:34;;;;;;;5.32;3.38;;;24.80;99.90;;;;;;5028154;28;20431;-85
2022/05/15 10:39:19;;;;;;;13.93;8.95;;;24.90;99.90;;;;;;5044548;28;20027;-85
2022/05/15 10:42:03;;;;;;;4.47;3.10;;;24.90;99.90;;;;;;5037598;28;20026;-85
2022/05/15 10:44:53;;;;;;;6.40;2.80;;;24.90;99.90;;;;;;5046354;28;20024;-85
2022/05/15 10:47:25;;;;;;;3.33;2.70;;;24.70;99.90;;;;;;5042431;28;20104;-84
2022/05/15 10:50:03;;;;;;;6.07;3.50;;;24.90;99.90;;;;;;5025725;28;20056;-85
2022/05/15 10:52:42;;;;;;;3.38;3.08;;;25.00;99.90;;;;;;5031207;28;20037;-84
2022/05/15 10:58:44;;;;;;;4.25;2.95;;;25.40;99.90;;;;;;5039744;28;20071;-85
2022/05/15 11:01:32;;;;;;;5.82;5.10;;;25.40;99.90;;;;;;5020754;28;20035;-85
2022/05/15 11:04:06;;;;;;;4.80;2.80;;;25.50;99.90;;;;;;5045276;28;20025;-84
2022/05/15 11:06:47;;;;;;;10.55;6.43;;;25.60;99.90;;;;;;5020671;28;20144;-85
2022/05/15 11:09:31;;;;;;;8.45;5.63;;;25.70;99.90;;;;;;5042876;28;20037;-85
2022/05/15 11:12:03;;;;;;;4.68;2.63;;;25.70;99.90;;;;;;5040641;28;20026;-83
2022/05/15 11:14:52;;;;;;;8.30;2.53;;;25.60;99.90;;;;;;5037975;28;20538;-84
2022/05/15 11:17:51;;;;;;;8.23;2.90;;;25.40;99.90;;;;;;4981187;28;20458;-83
2022/05/15 11:20:23;;;;;;;7.40;5.72;;;25.50;99.90;;;;;;5043152;28;20028;-84
2022/05/15 11:23:03;;;;;;;7.38;3.60;;;25.70;99.90;;;;;;5041743;28;20033;-84
2022/05/15 11:25:37;;;;;;;5.38;3.55;;;25.70;99.90;;;;;;5039626;28;20041;-85
2022/05/15 11:28:21;;;;;;;15.10;9.85;;;25.90;99.90;;;;;;5041787;28;20033;-83
2022/05/15 11:30:52;;;;;;;6.25;5.38;;;25.90;99.90;;;;;;5047160;28;20032;-84
2022/05/15 11:33:53;;;;;;;4.60;2.80;;;25.80;99.90;;;;;;5041685;28;20029;-83
2022/05/15 11:36:21;;;;;;;5.40;3.65;;;25.60;99.90;;;;;;5041532;28;20033;-84
2022/05/15 11:39:03;;;;;;;3.05;2.75;;;25.50;99.90;;;;;;5025882;28;20365;-84
2022/05/15 11:41:34;;;;;;;3.35;2.70;;;25.70;99.90;;;;;;5043417;28;20565;-82
2022/05/15 11:44:03;;;;;;;3.55;2.33;;;25.80;99.90;;;;;;5037825;28;20112;-83
2022/05/15 11:46:51;;;;;;;3.28;2.25;;;25.70;99.90;;;;;;5024668;28;20392;-84
2022/05/15 11:49:23;;;;;;;2.90;2.42;;;25.70;99.90;;;;;;5044979;28;20482;-83
2022/05/15 11:52:04;;;;;;;7.03;4.22;;;25.80;99.90;;;;;;5038296;28;20492;-83
2022/05/15 11:54:39;;;;;;;6.13;2.22;;;25.90;99.90;;;;;;5014817;28;20033;-84
2022/05/15 11:57:08;;;;;;;3.33;2.05;;;26.00;99.90;;;;;;5032074;28;20034;-83
2022/05/15 11:59:59;;;;;;;2.13;1.75;;;26.20;99.90;;;;;;5045172;28;20373;-84
2022/05/15 12:02:31;;;;;;;6.63;5.07;;;28.40;99.90;;;;;;5037301;28;20037;-83
2022/05/15 12:05:40;;;;;;;5.18;4.28;;;31.50;99.90;;;;;;5044552;28;20033;-83
2022/05/15 12:08:18;;;;;;;10.65;5.35;;;32.90;99.70;;;;;;5008233;28;20041;-84
2022/05/15 12:10:43;;;;;;;5.15;2.85;;;33.90;98.60;;;;;;5029260;28;20032;-84
2022/05/15 12:13:13;;;;;;;5.05;3.03;;;34.30;96.60;;;;;;5024340;28;20020;-83
2022/05/15 12:15:44;;;;;;;5.47;2.90;;;34.40;96.20;;;;;;5027774;28;20053;-84
2022/05/15 12:18:30;;;;;;;2.50;2.30;;;34.10;96.60;;;;;;5037533;28;20475;-84
2022/05/15 12:20:58;;;;;;;3.58;2.22;;;34.30;95.60;;;;;;5033862;28;20513;-84
2022/05/15 12:23:31;;;;;;;2.63;1.98;;;34.60;95.00;;;;;;5041039;28;20017;-84
2022/05/15 12:26:22;;;;;;;2.92;2.10;;;34.60;94.40;;;;;;5043512;28;20037;-84
2022/05/15 12:29:21;;;;;;;4.22;2.30;;;34.30;95.10;;;;;;5019864;28;20083;-85
2022/05/15 12:31:47;;;;;;;3.15;2.28;;;34.60;94.10;;;;;;5037975;28;20136;-84
2022/05/15 12:34:21;;;;;;;6.32;2.45;;;35.50;93.80;;;;;;5036426;28;20492;-83
2022/05/15 12:36:57;;;;;;;7.88;2.72;;;36.90;92.70;;;;;;5037075;28;20120;-84
2022/05/15 12:39:29;;;;;;;5.53;2.22;;;37.30;91.10;;;;;;5038296;28;20152;-84
2022/05/15 12:42:00;;;;;;;8.13;2.35;;;37.90;89.40;;;;;;5048692;28;20052;-83
2022/05/15 12:44:32;;;;;;;3.90;2.40;;;38.10;88.50;;;;;;5049720;28;20036;-84
2022/05/15 12:47:00;;;;;;;2.40;2.20;;;37.60;88.50;;;;;;5037614;28;20033;-84
2022/05/15 12:49:31;;;;;;;3.90;2.10;;;37.90;89.80;;;;;;5034068;28;20068;-84
2022/05/15 12:52:11;;;;;;;4.40;2.28;;;38.40;87.50;;;;;;5056749;28;20497;-85
2022/05/15 12:54:40;;;;;;;3.78;2.05;;;38.60;85.50;;;;;;5054174;28;20483;-85
2022/05/15 12:57:09;;;;;;;5.25;2.42;;;39.50;86.30;;;;;;5039480;28;20083;-84
2022/05/15 12:59:42;;;;;;;4.97;2.60;;;39.40;81.00;;;;;;5038064;28;20026;-85
2022/05/15 13:02:14;;;;;;;2.78;2.40;;;38.30;82.90;;;;;;5040162;28;20036;-84
2022/05/15 13:04:46;;;;;;;2.67;2.42;;;37.30;86.80;;;;;;5043258;28;20088;-84
2022/05/15 13:07:12;;;;;;;;;;;37.50;85.90;;;;;;5038745;28;20029;-84
2022/05/15 13:09:39;;;;;;;4.47;2.20;;;37.80;85.10;;;;;;5043923;28;19916;-84
2022/05/15 13:12:10;;;;;;;2.58;2.35;;;37.70;87.40;;;;;;5041250;28;20033;-83
2022/05/15 13:14:39;;;;;;;5.23;2.13;;;38.30;85.90;;;;;;5044373;28;20052;-84
2022/05/15 13:17:08;;;;;;;2.72;2.40;;;38.90;84.50;;;;;;5040156;28;20032;-83
2022/05/15 13:19:45;;;;;;;2.75;2.28;;;39.50;78.80;;;;;;5043989;28;20029;-84
2022/05/15 13:22:22;;;;;;;4.50;1.88;;;38.80;77.50;;;;;;5039869;28;20487;-84
2022/05/15 13:24:54;;;;;;;3.65;2.45;;;38.80;78.20;;;;;;5036975;28;20017;-84
2022/05/15 13:27:20;;;;;;;6.15;2.17;;;38.30;78.10;;;;;;5021095;28;20091;-85
2022/05/15 13:29:46;;;;;;;3.78;2.30;;;38.00;78.90;;;;;;5037391;28;20509;-86